Terminal Aerodrome Forecast
Issued by NWS

Home | Current Version | Previous Version | Text Only | Print | Product List | Glossary On
Versions: 1 2 3 4 5 6 7 8 9 10 11 12 13 14 15 16 17 18 19
000
FTUS43 KLSX 181725
TAFUIN
TAF
KUIN 181725Z 1818/1918 24011KT P6SM FEW015 BKN025
     FM182000 23012G18KT P6SM FEW250
     FM191200 24008KT P6SM FEW250
     FM191700 30007KT P6SM FEW250=

USA.gov is the U.S. government's official web portal to all federal, state and local government web resources and services.